Time;durP1;ratioP1;P1;durP2;ratioP2;P2;SDS_P1;SDS_P2;PMS_P1;PMS_P2;Temp;Humidity;BMP_temperature;BMP_pressure;BME280_temperature;BME280_humidity;BME280_pressure;Samples;Min_cycle;Max_cycle;Signal;HPM_P1;HPM_P2
2023/10/25 00:01:14;;;;;;;;;;;19.40;1.00;;;;;;4978555;28;20425;-59
2023/10/25 00:03:41;;;;;;;;;;;19.40;1.00;;;;;;4979165;28;20603;-58
2023/10/25 00:06:07;;;;;;;;;;;19.40;1.00;;;;;;4975360;28;19933;-60
2023/10/25 00:08:34;;;;;;;;;;;19.30;1.00;;;;;;4975698;28;20020;-59
2023/10/25 00:11:05;;;;;;;;;;;19.30;1.00;;;;;;4976989;28;20516;-57
2023/10/25 00:13:32;;;;;;;;;;;19.30;1.00;;;;;;4976148;28;20396;-59
2023/10/25 00:15:59;;;;;;;;;;;19.30;1.00;;;;;;4978092;28;20004;-59
2023/10/25 00:18:26;;;;;;;;;;;19.30;1.00;;;;;;4978251;28;19932;-58
2023/10/25 00:20:53;;;;;;;;;;;19.30;1.00;;;;;;4980490;28;19933;-57
2023/10/25 00:23:20;;;;;;;;;;;19.20;1.00;;;;;;4979604;28;19989;-60
2023/10/25 00:25:48;;;;;;;;;;;19.20;1.00;;;;;;4973243;28;20029;-60
2023/10/25 00:28:14;;;;;;;;;;;19.20;1.00;;;;;;4981785;28;19937;-60
2023/10/25 00:30:42;;;;;;;;;;;19.20;1.00;;;;;;4974185;28;19926;-60
2023/10/25 00:33:08;;;;;;;;;;;19.20;1.00;;;;;;4974263;28;22258;-58
2023/10/25 00:35:36;;;;;;;;;;;19.20;1.00;;;;;;4971227;28;20451;-60
2023/10/25 00:38:02;;;;;;;;;;;19.20;1.00;;;;;;4956416;28;19926;-58
2023/10/25 00:40:29;;;;;;;;;;;19.20;1.00;;;;;;4956743;28;19926;-59
2023/10/25 00:43:13;;;;;;;;;;;19.20;1.00;;;;;;4958595;28;20008;-59
2023/10/25 00:45:45;;;;;;;;;;;19.20;1.00;;;;;;4975007;28;19941;-60
2023/10/25 00:48:12;;;;;;;;;;;19.20;1.00;;;;;;4977728;28;20001;-59
2023/10/25 00:50:39;;;;;;;;;;;19.10;1.00;;;;;;4967232;28;19934;-60
2023/10/25 00:53:06;;;;;;;;;;;19.10;1.00;;;;;;4958094;28;20017;-60
2023/10/25 00:55:32;;;;;;;;;;;19.10;1.00;;;;;;4979025;28;19930;-60
2023/10/25 00:57:59;;;;;;;;;;;19.10;1.00;;;;;;4974658;28;20017;-58
2023/10/25 01:00:26;;;;;;;;;;;19.10;1.00;;;;;;4960824;28;19959;-58
2023/10/25 01:02:53;;;;;;;;;;;19.00;1.00;;;;;;4957467;28;20032;-58
2023/10/25 01:05:22;;;;;;;;;;;19.00;1.00;;;;;;4974961;28;19930;-58
2023/10/25 01:07:49;;;;;;;;;;;19.00;1.00;;;;;;4956400;28;19929;-56
2023/10/25 01:10:15;;;;;;;;;;;19.00;1.00;;;;;;4955402;28;19926;-58
2023/10/25 01:12:42;;;;;;;;;;;19.00;1.00;;;;;;4963406;28;20347;-60
2023/10/25 01:15:11;;;;;;;;;;;19.00;1.00;;;;;;4958554;28;20538;-58
2023/10/25 01:17:38;;;;;;;;;;;19.00;1.00;;;;;;4976672;28;19926;-59
2023/10/25 01:20:05;;;;;;;;;;;19.00;1.00;;;;;;4973819;28;19934;-59
2023/10/25 01:22:32;;;;;;;;;;;19.00;1.00;;;;;;4977373;28;20443;-58
2023/10/25 01:24:58;;;;;;;;;;;19.00;1.00;;;;;;4976283;28;19934;-58
2023/10/25 01:27:25;;;;;;;;;;;19.00;1.00;;;;;;4976784;28;19953;-59
2023/10/25 01:29:52;;;;;;;;;;;18.90;1.00;;;;;;4972689;28;19957;-59
2023/10/25 01:32:19;;;;;;;;;;;18.90;1.00;;;;;;4972614;28;20020;-58
2023/10/25 01:34:45;;;;;;;;;;;18.90;1.00;;;;;;4976365;28;20311;-58
2023/10/25 01:37:13;;;;;;;;;;;18.90;1.00;;;;;;4977075;28;19937;-60
2023/10/25 01:39:39;;;;;;;;;;;18.90;1.00;;;;;;4973875;28;19933;-59
2023/10/25 01:42:07;;;;;;;;;;;18.90;1.00;;;;;;4954879;28;19926;-59
2023/10/25 01:44:34;;;;;;;;;;;18.90;1.00;;;;;;4973473;28;20370;-59
2023/10/25 01:47:01;;;;;;;;;;;18.80;1.00;;;;;;4974011;28;19942;-57
2023/10/25 01:49:27;;;;;;;;;;;18.90;1.00;;;;;;4955682;28;19968;-60
2023/10/25 01:51:54;;;;;;;;;;;18.80;1.00;;;;;;4975839;28;19925;-59
2023/10/25 01:54:21;;;;;;;;;;;18.80;1.00;;;;;;4974476;28;20020;-60
2023/10/25 01:56:50;;;;;;;;;;;18.80;1.00;;;;;;4974492;28;20419;-58
2023/10/25 01:59:16;;;;;;;;;;;18.80;1.00;;;;;;4956180;28;19965;-57
2023/10/25 02:01:43;;;;;;;;;;;18.80;1.00;;;;;;4958192;28;20299;-60
2023/10/25 02:04:10;;;;;;;;;;;18.80;1.00;;;;;;4976160;28;19932;-59
2023/10/25 02:06:37;;;;;;;;;;;18.80;1.00;;;;;;4955623;28;19926;-59
2023/10/25 02:09:04;;;;;;;;;;;18.80;1.00;;;;;;4976125;28;20289;-58
2023/10/25 02:11:30;;;;;;;;;;;18.70;1.00;;;;;;4955952;28;20312;-58
2023/10/25 02:13:57;;;;;;;;;;;18.80;1.00;;;;;;4973040;28;19926;-58
2023/10/25 02:16:26;;;;;;;;;;;18.80;1.00;;;;;;4957847;28;19980;-59
2023/10/25 02:18:54;;;;;;;;;;;18.80;1.00;;;;;;4973890;28;20355;-59
2023/10/25 02:21:21;;;;;;;;;;;18.70;1.00;;;;;;4972793;28;19936;-57
2023/10/25 02:23:48;;;;;;;;;;;18.70;1.00;;;;;;4958109;28;19937;-57
2023/10/25 02:26:14;;;;;;;;;;;18.70;1.00;;;;;;4957073;28;19948;-59
2023/10/25 02:28:41;;;;;;;;;;;18.70;1.00;;;;;;4958501;28;19973;-58
2023/10/25 02:31:08;;;;;;;;;;;18.70;1.00;;;;;;4973127;28;20054;-58
2023/10/25 02:33:36;;;;;;;;;;;18.70;1.00;;;;;;4968790;28;19930;-58
2023/10/25 02:36:02;;;;;;;;;;;18.70;1.00;;;;;;4971756;28;19930;-59
2023/10/25 02:38:29;;;;;;;;;;;18.70;1.00;;;;;;4957486;28;19926;-58
2023/10/25 02:40:56;;;;;;;;;;;18.70;1.00;;;;;;4958380;28;19968;-59
2023/10/25 02:43:22;;;;;;;;;;;18.70;1.00;;;;;;4955158;28;20020;-60
2023/10/25 02:45:49;;;;;;;;;;;18.60;1.00;;;;;;4958350;28;20483;-58
2023/10/25 02:48:16;;;;;;;;;;;18.60;1.00;;;;;;4974020;28;20451;-58
2023/10/25 02:50:43;;;;;;;;;;;18.60;1.00;;;;;;4958315;28;19929;-58
2023/10/25 02:53:10;;;;;;;;;;;18.60;1.00;;;;;;4973145;28;19961;-60
2023/10/25 02:55:36;;;;;;;;;;;18.60;1.00;;;;;;4966080;28;19926;-59
2023/10/25 02:58:03;;;;;;;;;;;18.60;1.00;;;;;;4956764;28;19976;-57
2023/10/25 03:00:30;;;;;;;;;;;18.60;1.00;;;;;;4974720;28;19925;-58
2023/10/25 03:02:57;;;;;;;;;;;18.60;1.00;;;;;;4955281;28;19950;-59
2023/10/25 03:05:24;;;;;;;;;;;18.60;1.00;;;;;;4973899;28;20092;-60
2023/10/25 03:07:50;;;;;;;;;;;18.50;1.00;;;;;;4955002;28;19933;-60
2023/10/25 03:10:17;;;;;;;;;;;18.50;1.00;;;;;;4973752;28;19926;-60
2023/10/25 03:12:44;;;;;;;;;;;18.50;1.00;;;;;;4973975;28;19988;-58
2023/10/25 03:15:11;;;;;;;;;;;18.50;1.00;;;;;;4956349;28;20013;-59
2023/10/25 03:17:38;;;;;;;;;;;18.50;1.00;;;;;;4975028;28;19977;-59
2023/10/25 03:20:05;;;;;;;;;;;18.50;1.00;;;;;;4975421;28;19930;-58
2023/10/25 03:22:32;;;;;;;;;;;18.50;1.00;;;;;;4957958;28;19930;-57
2023/10/25 03:24:59;;;;;;;;;;;18.50;1.00;;;;;;4977744;28;19965;-59
2023/10/25 03:27:26;;;;;;;;;;;18.50;1.00;;;;;;4977155;28;20376;-58
2023/10/25 03:29:53;;;;;;;;;;;18.50;1.00;;;;;;4976152;28;19930;-59
2023/10/25 03:32:19;;;;;;;;;;;18.50;1.00;;;;;;4977064;28;20343;-58
2023/10/25 03:34:47;;;;;;;;;;;18.50;1.00;;;;;;4957698;28;19977;-58
2023/10/25 03:37:14;;;;;;;;;;;18.50;1.00;;;;;;4957754;28;19972;-60
2023/10/25 03:39:41;;;;;;;;;;;18.50;1.00;;;;;;4970695;28;20728;-59
2023/10/25 03:42:09;;;;;;;;;;;18.50;1.00;;;;;;4974508;28;20299;-59
2023/10/25 03:44:35;;;;;;;;;;;18.40;1.00;;;;;;4975310;28;19996;-60
2023/10/25 03:47:03;;;;;;;;;;;18.40;1.00;;;;;;4977393;28;22330;-58
2023/10/25 03:49:30;;;;;;;;;;;18.40;1.00;;;;;;4978489;28;19926;-59
2023/10/25 03:51:57;;;;;;;;;;;18.40;1.00;;;;;;4974503;28;20024;-59
2023/10/25 03:54:24;;;;;;;;;;;18.40;1.00;;;;;;4974884;28;19942;-59
2023/10/25 03:56:50;;;;;;;;;;;18.40;1.00;;;;;;4959799;28;19930;-59
2023/10/25 03:59:17;;;;;;;;;;;18.40;1.00;;;;;;4977884;28;19973;-60
2023/10/25 04:01:44;;;;;;;;;;;18.40;1.00;;;;;;4976530;28;20021;-58
2023/10/25 04:04:11;;;;;;;;;;;18.40;1.00;;;;;;4974273;28;20343;-58
2023/10/25 04:06:38;;;;;;;;;;;18.40;1.00;;;;;;4972868;28;19934;-59
2023/10/25 04:09:08;;;;;;;;;;;18.40;1.00;;;;;;4978783;28;19942;-58
2023/10/25 04:11:34;;;;;;;;;;;18.40;1.00;;;;;;4974661;28;19934;-59
2023/10/25 04:14:01;;;;;;;;;;;18.40;1.00;;;;;;4977704;28;19940;-60
2023/10/25 04:16:28;;;;;;;;;;;18.40;1.00;;;;;;4977006;28;20012;-60
2023/10/25 04:18:55;;;;;;;;;;;18.40;1.00;;;;;;4976285;28;20292;-59
2023/10/25 04:21:21;;;;;;;;;;;18.30;1.00;;;;;;4975290;28;20379;-59
2023/10/25 04:23:48;;;;;;;;;;;18.30;1.00;;;;;;4976022;28;19934;-57
2023/10/25 04:26:15;;;;;;;;;;;18.30;1.00;;;;;;4976051;28;20017;-57
2023/10/25 04:28:42;;;;;;;;;;;18.30;1.00;;;;;;4981456;28;20044;-58
2023/10/25 04:31:10;;;;;;;;;;;18.30;1.00;;;;;;4975701;28;20020;-59
2023/10/25 04:33:37;;;;;;;;;;;18.30;1.00;;;;;;4976662;28;19930;-60
2023/10/25 04:36:04;;;;;;;;;;;18.30;1.00;;;;;;4977696;28;20311;-60
2023/10/25 04:38:31;;;;;;;;;;;18.30;1.00;;;;;;4976059;28;19926;-59
2023/10/25 04:40:58;;;;;;;;;;;18.30;1.00;;;;;;4972757;28;19925;-59
2023/10/25 04:43:25;;;;;;;;;;;18.30;1.00;;;;;;4976958;28;19930;-60
2023/10/25 04:45:54;;;;;;;;;;;18.30;1.00;;;;;;4977754;28;20020;-59
2023/10/25 04:48:21;;;;;;;;;;;18.30;1.00;;;;;;4973499;28;20965;-59
2023/10/25 04:50:47;;;;;;;;;;;18.30;1.00;;;;;;4974186;28;19930;-60
2023/10/25 04:53:14;;;;;;;;;;;18.30;1.00;;;;;;4976804;28;19930;-60
2023/10/25 04:55:45;;;;;;;;;;;18.30;1.00;;;;;;4968405;28;20385;-58
2023/10/25 04:58:12;;;;;;;;;;;18.20;1.00;;;;;;4973767;28;19969;-60
2023/10/25 05:00:38;;;;;;;;;;;18.20;1.00;;;;;;4975355;28;19926;-59
2023/10/25 05:03:10;;;;;;;;;;;18.20;1.00;;;;;;4978897;28;20327;-59
2023/10/25 05:05:38;;;;;;;;;;;18.20;1.00;;;;;;4976348;28;19933;-60
2023/10/25 05:08:05;;;;;;;;;;;18.20;1.00;;;;;;4972107;28;19969;-58
2023/10/25 05:10:32;;;;;;;;;;;18.20;1.00;;;;;;4976171;28;20588;-59
2023/10/25 05:12:59;;;;;;;;;;;18.20;1.00;;;;;;4976930;28;19930;-58
2023/10/25 05:15:27;;;;;;;;;;;18.20;1.00;;;;;;4974837;28;19960;-59
2023/10/25 05:17:54;;;;;;;;;;;18.20;1.00;;;;;;4977182;28;19926;-60
2023/10/25 05:20:21;;;;;;;;;;;18.20;1.00;;;;;;4978542;28;19930;-59
2023/10/25 05:22:49;;;;;;;;;;;18.10;1.00;;;;;;4976269;28;20410;-56
2023/10/25 05:25:16;;;;;;;;;;;18.20;1.00;;;;;;4974895;28;19933;-58
2023/10/25 05:27:43;;;;;;;;;;;18.20;1.00;;;;;;4979586;28;19964;-58
2023/10/25 05:30:12;;;;;;;;;;;18.10;1.00;;;;;;4974064;28;19926;-57
2023/10/25 05:32:43;;;;;;;;;;;18.10;1.00;;;;;;4977194;28;19934;-58
2023/10/25 05:35:10;;;;;;;;;;;18.10;1.00;;;;;;4969202;28;19941;-59
2023/10/25 05:37:37;;;;;;;;;;;18.10;1.00;;;;;;4970415;28;19938;-57
2023/10/25 05:40:04;;;;;;;;;;;18.10;1.00;;;;;;4973372;28;19977;-57
2023/10/25 05:42:33;;;;;;;;;;;18.10;1.00;;;;;;4973436;28;19926;-59
2023/10/25 05:45:00;;;;;;;;;;;18.10;1.00;;;;;;4974827;28;19926;-58
2023/10/25 05:47:27;;;;;;;;;;;18.10;1.00;;;;;;4970818;28;20463;-61
2023/10/25 05:49:54;;;;;;;;;;;18.10;1.00;;;;;;4971284;28;19941;-59
2023/10/25 05:52:21;;;;;;;;;;;18.10;1.00;;;;;;4976032;28;19934;-59
2023/10/25 05:54:48;;;;;;;;;;;18.10;1.00;;;;;;4973657;28;20120;-59
2023/10/25 05:57:15;;;;;;;;;;;18.10;1.00;;;;;;4974572;28;19930;-60
2023/10/25 05:59:42;;;;;;;;;;;18.10;1.00;;;;;;4973633;28;19980;-60
2023/10/25 06:02:10;;;;;;;;;;;18.10;1.00;;;;;;4971669;28;19927;-59
2023/10/25 06:04:38;;;;;;;;;;;18.10;1.00;;;;;;4973127;28;19949;-60
2023/10/25 06:07:06;;;;;;;;;;;18.10;1.00;;;;;;4972259;28;19945;-60
2023/10/25 06:09:33;;;;;;;;;;;18.10;1.00;;;;;;4969921;28;20391;-60
2023/10/25 06:12:00;;;;;;;;;;;18.10;1.00;;;;;;4972384;28;20446;-60
2023/10/25 06:14:27;;;;;;;;;;;18.00;1.00;;;;;;4974677;28;19930;-60
2023/10/25 06:16:54;;;;;;;;;;;18.10;1.00;;;;;;4972134;28;20040;-58
2023/10/25 06:19:21;;;;;;;;;;;18.00;1.00;;;;;;4971727;28;20462;-60
2023/10/25 06:21:48;;;;;;;;;;;18.00;1.00;;;;;;4973210;28;19934;-60
2023/10/25 06:24:15;;;;;;;;;;;18.00;1.00;;;;;;4970235;28;20051;-60
2023/10/25 06:26:42;;;;;;;;;;;18.00;1.00;;;;;;4971954;28;19933;-59
2023/10/25 06:29:08;;;;;;;;;;;18.00;1.00;;;;;;4973739;28;19930;-58
2023/10/25 06:31:35;;;;;;;;;;;18.00;1.00;;;;;;4974832;28;19926;-60
2023/10/25 06:34:02;;;;;;;;;;;18.00;1.00;;;;;;4972882;28;19933;-59
2023/10/25 06:36:31;;;;;;;;;;;18.00;1.00;;;;;;4971637;28;19940;-60
2023/10/25 06:38:57;;;;;;;;;;;18.00;1.00;;;;;;4974036;28;20039;-61
2023/10/25 06:41:24;;;;;;;;;;;18.00;1.00;;;;;;4970198;28;19926;-59
2023/10/25 06:43:51;;;;;;;;;;;18.00;1.00;;;;;;4952220;28;19934;-59
2023/10/25 06:46:20;;;;;;;;;;;18.00;1.00;;;;;;4970757;28;19946;-59
2023/10/25 06:48:48;;;;;;;;;;;18.00;1.00;;;;;;4971358;28;19926;-57
2023/10/25 06:51:15;;;;;;;;;;;18.00;1.00;;;;;;4974034;28;19930;-58
2023/10/25 06:53:42;;;;;;;;;;;18.00;1.00;;;;;;4970074;28;19926;-58
2023/10/25 06:56:09;;;;;;;;;;;18.10;1.00;;;;;;4970519;28;19926;-59
2023/10/25 06:58:37;;;;;;;;;;;18.00;1.00;;;;;;4975509;28;19962;-59
2023/10/25 07:01:04;;;;;;;;;;;18.00;1.00;;;;;;4977250;28;19926;-60
2023/10/25 07:03:37;;;;;;;;;;;18.00;1.00;;;;;;4976645;28;19940;-60
2023/10/25 07:06:04;;;;;;;;;;;18.00;1.00;;;;;;4976090;28;20345;-58
2023/10/25 07:08:31;;;;;;;;;;;18.00;1.00;;;;;;4977635;28;20296;-61
2023/10/25 07:10:58;;;;;;;;;;;18.00;1.00;;;;;;4976165;28;20006;-59
2023/10/25 07:13:26;;;;;;;;;;;18.00;1.00;;;;;;4975764;28;19985;-59
2023/10/25 07:15:54;;;;;;;;;;;18.00;1.00;;;;;;4976427;28;19988;-57
2023/10/25 07:18:21;;;;;;;;;;;18.00;1.00;;;;;;4976275;28;19950;-60
2023/10/25 07:20:48;;;;;;;;;;;18.00;1.00;;;;;;4977233;28;19941;-61
2023/10/25 07:23:14;;;;;;;;;;;18.00;1.00;;;;;;4975731;28;19933;-57
2023/10/25 07:25:42;;;;;;;;;;;18.00;1.00;;;;;;4981128;28;19949;-61
2023/10/25 07:28:08;;;;;;;;;;;18.00;1.00;;;;;;4973129;28;19930;-59
2023/10/25 07:30:35;;;;;;;;;;;18.00;1.00;;;;;;4976047;28;19961;-58
2023/10/25 07:33:02;;;;;;;;;;;17.90;1.00;;;;;;4979286;28;19926;-60
2023/10/25 07:35:29;;;;;;;;;;;18.00;1.00;;;;;;4980280;28;20009;-62
2023/10/25 07:37:55;;;;;;;;;;;17.90;1.00;;;;;;4980419;28;19980;-59
2023/10/25 07:40:22;;;;;;;;;;;18.00;1.00;;;;;;4974940;28;19933;-58
2023/10/25 07:42:49;;;;;;;;;;;17.90;1.00;;;;;;4980274;28;19930;-59
2023/10/25 07:45:16;;;;;;;;;;;17.90;1.00;;;;;;4978716;28;20026;-60
2023/10/25 07:47:43;;;;;;;;;;;17.90;1.00;;;;;;4984664;28;19925;-60
2023/10/25 07:50:09;;;;;;;;;;;17.90;1.00;;;;;;4982811;28;19936;-60
2023/10/25 07:52:36;;;;;;;;;;;17.90;1.00;;;;;;4979232;28;19949;-60
2023/10/25 07:55:03;;;;;;;;;;;17.90;1.00;;;;;;4979586;28;20454;-58
2023/10/25 07:57:50;;;;;;;;;;;17.90;1.00;;;;;;4981156;28;19933;-60
2023/10/25 08:00:37;;;;;;;;;;;17.90;1.00;;;;;;4977405;28;20016;-58
2023/10/25 08:03:03;;;;;;;;;;;17.90;1.00;;;;;;4980291;28;19933;-59
2023/10/25 08:05:30;;;;;;;;;;;17.90;1.00;;;;;;4980082;28;20401;-59
2023/10/25 08:07:57;;;;;;;;;;;17.90;1.00;;;;;;4980262;28;19926;-57
2023/10/25 08:10:24;;;;;;;;;;;17.90;1.00;;;;;;4975361;28;20422;-57
2023/10/25 08:12:51;;;;;;;;;;;17.90;1.00;;;;;;4976981;28;20426;-59
2023/10/25 08:15:17;;;;;;;;;;;17.90;1.00;;;;;;4980253;28;20009;-59
2023/10/25 08:17:44;;;;;;;;;;;17.90;1.00;;;;;;4979470;28;19929;-57
2023/10/25 08:20:11;;;;;;;;;;;17.90;1.00;;;;;;4974546;28;19930;-59
2023/10/25 08:22:39;;;;;;;;;;;17.90;1.00;;;;;;4977141;28;20012;-59
2023/10/25 08:25:08;;;;;;;;;;;17.90;1.00;;;;;;4972470;28;19988;-59
2023/10/25 08:27:36;;;;;;;;;;;17.90;1.00;;;;;;4973860;28;20303;-58
2023/10/25 08:30:03;;;;;;;;;;;17.90;1.00;;;;;;4976359;28;19926;-58
2023/10/25 08:32:31;;;;;;;;;;;17.90;1.00;;;;;;4981493;28;19972;-58
2023/10/25 08:34:57;;;;;;;;;;;17.80;1.00;;;;;;4978017;28;19926;-58
2023/10/25 08:37:24;;;;;;;;;;;17.80;1.00;;;;;;4975123;28;19941;-59
2023/10/25 08:39:51;;;;;;;;;;;17.80;1.00;;;;;;4962681;28;19926;-59
2023/10/25 08:42:18;;;;;;;;;;;17.80;1.00;;;;;;4977365;28;20021;-59
2023/10/25 08:44:45;;;;;;;;;;;17.80;1.00;;;;;;4976058;28;19937;-59
2023/10/25 08:47:13;;;;;;;;;;;17.80;1.00;;;;;;4973225;28;19930;-58
2023/10/25 08:49:39;;;;;;;;;;;17.80;1.00;;;;;;4978726;28;20013;-57
2023/10/25 08:52:07;;;;;;;;;;;17.80;1.00;;;;;;4974481;28;19996;-58
2023/10/25 08:54:35;;;;;;;;;;;17.80;1.00;;;;;;4972464;28;19926;-59
2023/10/25 08:57:03;;;;;;;;;;;17.80;1.00;;;;;;4975995;28;20026;-59
2023/10/25 08:59:30;;;;;;;;;;;17.80;1.00;;;;;;4976654;28;19930;-59
2023/10/25 09:01:57;;;;;;;;;;;17.80;1.00;;;;;;4971856;28;20352;-59
2023/10/25 09:04:24;;;;;;;;;;;17.80;1.00;;;;;;4972748;28;20024;-59
2023/10/25 09:06:51;;;;;;;;;;;17.80;1.00;;;;;;4976877;28;19932;-59
2023/10/25 09:09:18;;;;;;;;;;;17.80;1.00;;;;;;4974187;28;19926;-57
2023/10/25 09:11:45;;;;;;;;;;;17.80;1.00;;;;;;4978529;28;19929;-59
2023/10/25 09:14:13;;;;;;;;;;;17.70;1.00;;;;;;4972261;28;20022;-58
2023/10/25 09:16:42;;;;;;;;;;;17.70;1.00;;;;;;4978335;28;19933;-58
2023/10/25 09:19:08;;;;;;;;;;;17.80;1.00;;;;;;4975774;28;19945;-58
2023/10/25 09:21:35;;;;;;;;;;;17.70;1.00;;;;;;4975006;28;19957;-59
2023/10/25 09:24:07;;;;;;;;;;;17.70;1.00;;;;;;4973318;28;19926;-57
2023/10/25 09:26:39;;;;;;;;;;;17.70;1.00;;;;;;4972376;28;19930;-58
2023/10/25 09:29:09;;;;;;;;;;;17.80;1.00;;;;;;4972594;28;19926;-56
2023/10/25 09:31:37;;;;;;;;;;;17.80;1.00;;;;;;4979214;28;19934;-57
2023/10/25 09:34:08;;;;;;;;;;;17.70;1.00;;;;;;4977274;28;19973;-57
2023/10/25 09:36:36;;;;;;;;;;;17.70;1.00;;;;;;4956409;28;19930;-59
2023/10/25 09:39:02;;;;;;;;;;;17.70;1.00;;;;;;4972511;28;20671;-59
2023/10/25 09:41:32;;;;;;;;;;;17.70;1.00;;;;;;4974358;28;20032;-58
2023/10/25 09:43:59;;;;;;;;;;;17.70;1.00;;;;;;4976378;28;19930;-58
2023/10/25 09:46:29;;;;;;;;;;;17.70;1.00;;;;;;4974423;28;19926;-59
2023/10/25 09:49:03;;;;;;;;;;;17.70;1.00;;;;;;4974323;28;19930;-59
2023/10/25 09:51:39;;;;;;;;;;;17.70;1.00;;;;;;4971062;28;19937;-57
2023/10/25 09:54:11;;;;;;;;;;;17.70;1.00;;;;;;4971736;28;20392;-58
2023/10/25 09:56:38;;;;;;;;;;;17.70;1.00;;;;;;4971094;28;19940;-57
2023/10/25 09:59:06;;;;;;;;;;;17.70;1.00;;;;;;4972938;28;20028;-59
2023/10/25 10:01:34;;;;;;;;;;;17.70;1.00;;;;;;4971905;28;19926;-58
2023/10/25 10:04:10;;;;;;;;;;;17.70;1.00;;;;;;4974555;28;19933;-59
2023/10/25 10:06:44;;;;;;;;;;;17.70;1.00;;;;;;4974604;28;20422;-59
2023/10/25 10:09:19;;;;;;;;;;;17.70;1.00;;;;;;4976393;28;19934;-59
2023/10/25 10:11:56;;;;;;;;;;;17.60;1.00;;;;;;4975044;28;20053;-57
2023/10/25 10:14:28;;;;;;;;;;;17.70;1.00;;;;;;4971610;28;19937;-58
2023/10/25 10:17:02;;;;;;;;;;;17.60;1.00;;;;;;4973065;28;19936;-59
2023/10/25 10:19:32;;;;;;;;;;;17.60;1.00;;;;;;4973963;28;20408;-59
2023/10/25 10:22:06;;;;;;;;;;;17.60;1.00;;;;;;4977240;28;19930;-59
2023/10/25 10:24:53;;;;;;;;;;;17.60;1.00;;;;;;4973722;28;20017;-58
2023/10/25 10:27:23;;;;;;;;;;;17.60;1.00;;;;;;4975661;28;20264;-59
2023/10/25 10:29:50;;;;;;;;;;;17.60;1.00;;;;;;4974996;28;19930;-59
2023/10/25 10:32:17;;;;;;;;;;;17.60;1.00;;;;;;4971024;28;20642;-58
2023/10/25 10:34:45;;;;;;;;;;;17.60;1.00;;;;;;4974045;28;19926;-59
2023/10/25 10:37:16;;;;;;;;;;;17.60;1.00;;;;;;4975050;28;19926;-59
2023/10/25 10:39:55;;;;;;;;;;;17.60;1.00;;;;;;4968413;28;20016;-59
2023/10/25 10:42:28;;;;;;;;;;;17.60;1.00;;;;;;4971698;28;20368;-57
2023/10/25 10:44:55;;;;;;;;;;;17.60;1.00;;;;;;4973189;28;19929;-59
2023/10/25 10:47:38;;;;;;;;;;;17.60;1.00;;;;;;4975746;28;19980;-59
2023/10/25 10:50:10;;;;;;;;;;;17.60;1.00;;;;;;4953345;28;20340;-59
2023/10/25 10:52:37;;;;;;;;;;;17.60;1.00;;;;;;4978147;28;19930;-58
2023/10/25 10:55:04;;;;;;;;;;;17.60;1.00;;;;;;4972403;28;19926;-58
2023/10/25 10:57:31;;;;;;;;;;;17.60;1.00;;;;;;4971782;28;19941;-59
2023/10/25 10:59:59;;;;;;;;;;;17.60;1.00;;;;;;4973847;28;19926;-59
2023/10/25 11:02:26;;;;;;;;;;;17.60;1.00;;;;;;4972405;28;19933;-59
2023/10/25 11:04:53;;;;;;;;;;;17.60;1.00;;;;;;4977134;28;19929;-59
2023/10/25 11:07:20;;;;;;;;;;;17.60;1.00;;;;;;4971124;28;19926;-57
2023/10/25 11:09:46;;;;;;;;;;;17.60;1.00;;;;;;4971634;28;20025;-59
2023/10/25 11:12:16;;;;;;;;;;;17.60;1.00;;;;;;4966710;28;20456;-59
2023/10/25 11:14:44;;;;;;;;;;;17.60;1.00;;;;;;4975675;28;19964;-59
2023/10/25 11:17:11;;;;;;;;;;;17.60;1.00;;;;;;4973231;28;19930;-60
2023/10/25 11:19:38;;;;;;;;;;;17.60;1.00;;;;;;4971216;28;19926;-58
2023/10/25 11:22:05;;;;;;;;;;;17.60;1.00;;;;;;4953671;28;19926;-58
2023/10/25 11:24:33;;;;;;;;;;;17.60;1.00;;;;;;4971393;28;20295;-59
2023/10/25 11:27:00;;;;;;;;;;;17.60;1.00;;;;;;4971994;28;20283;-60
2023/10/25 11:29:27;;;;;;;;;;;17.60;1.00;;;;;;4973402;28;20691;-60
2023/10/25 11:31:55;;;;;;;;;;;17.60;1.00;;;;;;4973585;28;19926;-60
2023/10/25 11:34:22;;;;;;;;;;;17.60;1.00;;;;;;4964969;28;19965;-58
2023/10/25 11:36:49;;;;;;;;;;;17.60;1.00;;;;;;4964688;28;19933;-60
2023/10/25 11:39:16;;;;;;;;;;;17.50;1.00;;;;;;4970869;28;20046;-59
2023/10/25 11:41:42;;;;;;;;;;;17.60;1.00;;;;;;4975185;28;19925;-59
2023/10/25 11:44:09;;;;;;;;;;;17.60;1.00;;;;;;4977634;28;19956;-59
2023/10/25 11:46:40;;;;;;;;;;;17.50;1.00;;;;;;4973461;28;19926;-58
2023/10/25 11:49:07;;;;;;;;;;;17.50;1.00;;;;;;4973630;28;19934;-59
2023/10/25 11:51:34;;;;;;;;;;;17.60;1.00;;;;;;4981679;28;19940;-59
2023/10/25 11:54:02;;;;;;;;;;;17.50;1.00;;;;;;4976204;28;20012;-59
2023/10/25 11:56:43;;;;;;;;;;;17.60;1.00;;;;;;4976819;28;19934;-57
2023/10/25 11:59:10;;;;;;;;;;;17.60;1.00;;;;;;4976102;28;19933;-59
2023/10/25 12:01:36;;;;;;;;;;;17.50;1.00;;;;;;4978063;28;19933;-60
2023/10/25 12:04:03;;;;;;;;;;;17.60;1.00;;;;;;4980842;28;19930;-60
2023/10/25 12:06:30;;;;;;;;;;;17.50;1.00;;;;;;4979200;28;19934;-59
2023/10/25 12:08:57;;;;;;;;;;;17.50;1.00;;;;;;4970817;28;20013;-58
2023/10/25 12:11:24;;;;;;;;;;;17.50;1.00;;;;;;4975546;28;19930;-59
2023/10/25 12:13:51;;;;;;;;;;;17.60;1.00;;;;;;4973378;28;19981;-58
2023/10/25 12:16:18;;;;;;;;;;;17.60;1.00;;;;;;4975021;28;21594;-58
2023/10/25 12:18:45;;;;;;;;;;;17.50;1.00;;;;;;4974291;28;20466;-57
2023/10/25 12:21:11;;;;;;;;;;;17.50;1.00;;;;;;4974941;28;20368;-59
2023/10/25 12:23:38;;;;;;;;;;;17.50;1.00;;;;;;4976616;28;20323;-60
2023/10/25 12:26:06;;;;;;;;;;;17.50;1.00;;;;;;4973952;28;20273;-59
2023/10/25 12:28:33;;;;;;;;;;;17.50;1.00;;;;;;4973134;28;20292;-58
2023/10/25 12:30:59;;;;;;;;;;;17.50;1.00;;;;;;4972109;28;19940;-59
2023/10/25 12:33:26;;;;;;;;;;;17.50;1.00;;;;;;4976507;28;20021;-58
2023/10/25 12:35:53;;;;;;;;;;;17.50;1.00;;;;;;4976818;28;19948;-58
2023/10/25 12:38:20;;;;;;;;;;;17.50;1.00;;;;;;4971472;28;19969;-60
2023/10/25 12:40:47;;;;;;;;;;;17.50;1.00;;;;;;4972617;28;20016;-57
2023/10/25 12:43:14;;;;;;;;;;;17.50;1.00;;;;;;4974609;28;19961;-56
2023/10/25 12:45:40;;;;;;;;;;;17.50;1.00;;;;;;4974669;28;19934;-59
2023/10/25 12:48:07;;;;;;;;;;;17.50;1.00;;;;;;4974745;28;19926;-58
2023/10/25 12:50:34;;;;;;;;;;;17.50;1.00;;;;;;4972974;28;19989;-58
2023/10/25 12:53:02;;;;;;;;;;;17.50;1.00;;;;;;4974937;28;19930;-58
2023/10/25 12:55:29;;;;;;;;;;;17.50;1.00;;;;;;4973314;28;19969;-59
2023/10/25 12:57:55;;;;;;;;;;;17.50;1.00;;;;;;4975440;28;19926;-57
2023/10/25 13:00:22;;;;;;;;;;;17.50;1.00;;;;;;4974344;28;19930;-59
2023/10/25 13:02:49;;;;;;;;;;;17.50;1.00;;;;;;4975067;28;19926;-60
2023/10/25 13:05:16;;;;;;;;;;;17.50;1.00;;;;;;4974906;28;19940;-60
2023/10/25 13:07:43;;;;;;;;;;;17.50;1.00;;;;;;4975321;28;19930;-59
2023/10/25 13:10:10;;;;;;;;;;;17.50;1.00;;;;;;4975200;28;19933;-59
2023/10/25 13:12:37;;;;;;;;;;;17.50;1.00;;;;;;4975619;28;19926;-60
2023/10/25 13:15:04;;;;;;;;;;;17.50;1.00;;;;;;4975347;28;19976;-60
2023/10/25 13:17:32;;;;;;;;;;;17.50;1.00;;;;;;4974212;28;19934;-59
2023/10/25 13:19:59;;;;;;;;;;;17.50;1.00;;;;;;4972648;28;20392;-58
2023/10/25 13:22:26;;;;;;;;;;;17.50;1.00;;;;;;4972360;28;19926;-58
2023/10/25 13:24:53;;;;;;;;;;;17.50;1.00;;;;;;4975090;28;20072;-59
2023/10/25 13:27:19;;;;;;;;;;;17.50;1.00;;;;;;4975166;28;19933;-59
2023/10/25 13:29:48;;;;;;;;;;;17.50;1.00;;;;;;4975282;28;20384;-60
2023/10/25 13:32:14;;;;;;;;;;;17.50;1.00;;;;;;4974997;28;19977;-60
2023/10/25 13:34:42;;;;;;;;;;;17.50;1.00;;;;;;4973549;28;19985;-58
2023/10/25 13:37:09;;;;;;;;;;;17.50;1.00;;;;;;4975042;28;19930;-59
2023/10/25 13:39:38;;;;;;;;;;;17.50;1.00;;;;;;4974973;28;19966;-59
2023/10/25 13:42:05;;;;;;;;;;;17.50;1.00;;;;;;4968186;28;19931;-59
2023/10/25 13:44:32;;;;;;;;;;;17.50;1.00;;;;;;4970243;28;19934;-59
2023/10/25 13:46:58;;;;;;;;;;;17.50;1.00;;;;;;4974708;28;20025;-60
2023/10/25 13:49:25;;;;;;;;;;;17.50;1.00;;;;;;4974564;28;19926;-60
2023/10/25 13:51:52;;;;;;;;;;;17.50;1.00;;;;;;4970409;28;20282;-59
2023/10/25 13:54:19;;;;;;;;;;;17.50;1.00;;;;;;4971993;28;19926;-60
2023/10/25 13:56:46;;;;;;;;;;;17.50;1.00;;;;;;4968284;28;19956;-60
2023/10/25 13:59:12;;;;;;;;;;;17.50;1.00;;;;;;4972463;28;19985;-60
2023/10/25 14:01:41;;;;;;;;;;;17.50;1.00;;;;;;4971093;28;20587;-59
2023/10/25 14:04:09;;;;;;;;;;;17.50;1.00;;;;;;4970269;28;20369;-60
2023/10/25 14:06:39;;;;;;;;;;;17.50;1.00;;;;;;4972688;28;19926;-60
2023/10/25 14:09:05;;;;;;;;;;;17.50;1.00;;;;;;4953889;28;20016;-60
2023/10/25 14:11:32;;;;;;;;;;;17.50;1.00;;;;;;4947595;28;19930;-60
2023/10/25 14:13:59;;;;;;;;;;;17.50;1.00;;;;;;4973060;28;20337;-59
2023/10/25 14:16:26;;;;;;;;;;;17.50;1.00;;;;;;4972979;28;19926;-60
2023/10/25 14:18:53;;;;;;;;;;;17.50;1.00;;;;;;4969741;28;20368;-60
2023/10/25 14:21:20;;;;;;;;;;;17.50;1.00;;;;;;4970396;28;19933;-60
2023/10/25 14:23:48;;;;;;;;;;;17.50;1.00;;;;;;4973417;28;19926;-60
2023/10/25 14:26:15;;;;;;;;;;;17.50;1.00;;;;;;4973361;28;19926;-60
2023/10/25 14:28:42;;;;;;;;;;;17.50;1.00;;;;;;4970982;28;19930;-60
2023/10/25 14:31:12;;;;;;;;;;;17.50;1.00;;;;;;4966863;28;19926;-58
2023/10/25 14:33:39;;;;;;;;;;;17.50;1.00;;;;;;4970891;28;19934;-60